createdAt,value
2019-03-11T00:04:17.147Z,98839.64
2019-03-11T00:09:21.078Z,98909.05
2019-03-11T00:14:24.619Z,98942.55
2019-03-11T00:19:28.179Z,98983.23
2019-03-11T00:24:31.718Z,98977.70
2019-03-11T00:29:35.281Z,99063.91
2019-03-11T00:34:38.845Z,99068.03
2019-03-11T00:39:42.929Z,99108.41
2019-03-11T00:44:46.473Z,99159.97
2019-03-11T00:49:50.050Z,99180.36
2019-03-11T00:54:53.620Z,99194.77
2019-03-11T00:59:57.155Z,99219.15
2019-03-11T01:05:00.698Z,99226.50
2019-03-11T01:10:07.718Z,99246.37
2019-03-11T01:15:11.559Z,99257.22
2019-03-11T01:20:15.146Z,99268.55
2019-03-11T01:25:18.698Z,99284.15
2019-03-11T01:30:22.262Z,99303.27
2019-03-11T01:35:25.828Z,99311.94
2019-03-11T01:40:29.370Z,99335.34
2019-03-11T01:45:32.908Z,99340.84
2019-03-11T01:50:36.482Z,99347.98
2019-03-11T01:55:40.062Z,99360.30
2019-03-11T02:00:43.587Z,99372.66
2019-03-11T02:05:47.150Z,99378.45
2019-03-11T02:10:50.688Z,99388.16
2019-03-11T02:15:54.275Z,99400.08
2019-03-11T02:20:57.824Z,99407.33
2019-03-11T02:26:01.360Z,99423.05
2019-03-11T02:31:04.933Z,99415.25
2019-03-11T02:36:08.501Z,99438.86
2019-03-11T02:41:12.081Z,99434.09
2019-03-11T02:46:15.597Z,99447.74
2019-03-11T02:51:19.154Z,99462.30
2019-03-11T02:56:22.697Z,99464.91
2019-03-11T03:01:30.807Z,99474.23
2019-03-11T03:06:34.413Z,99486.70
2019-03-11T03:11:37.962Z,99482.13
2019-03-11T03:16:41.515Z,99490.43
2019-03-11T03:21:45.098Z,99486.98
2019-03-11T03:26:48.648Z,99497.23
2019-03-11T03:31:52.209Z,99501.27
2019-03-11T03:36:55.777Z,99505.43
2019-03-11T03:41:59.353Z,99497.20
2019-03-11T03:47:03.236Z,99509.34
2019-03-11T03:52:06.778Z,99516.73
2019-03-11T03:57:10.304Z,99523.88
2019-03-11T04:02:13.851Z,99529.91
2019-03-11T04:07:17.413Z,99539.88
2019-03-11T04:12:20.959Z,99550.63
2019-03-11T04:17:24.523Z,99547.09
2019-03-11T04:22:28.038Z,99548.35
2019-03-11T04:27:31.620Z,99561.24
2019-03-11T04:32:35.181Z,99570.25
2019-03-11T04:37:38.822Z,99579.97
2019-03-11T04:42:42.425Z,99580.79
2019-03-11T04:47:45.945Z,99589.11
2019-03-11T04:52:49.486Z,99577.80
2019-03-11T04:57:54.264Z,99580.78
2019-03-11T05:02:57.860Z,99586.32
2019-03-11T05:08:01.406Z,99583.91
2019-03-11T05:13:04.988Z,99582.63
2019-03-11T05:18:08.530Z,99587.44
2019-03-11T05:23:12.069Z,99580.34
2019-03-11T05:28:15.636Z,99590.19
2019-03-11T05:33:19.177Z,99599.08
2019-03-11T05:38:22.714Z,99595.19
2019-03-11T05:43:26.316Z,99600.47
2019-03-11T05:48:29.841Z,99589.84
2019-03-11T05:53:33.384Z,99588.15
2019-03-11T05:58:36.916Z,99581.75
2019-03-11T06:03:40.542Z,99587.23
2019-03-11T06:08:44.125Z,99583.75
2019-03-11T06:13:47.644Z,99595.83
2019-03-11T06:18:51.921Z,99595.37
2019-03-11T06:23:55.629Z,99586.82
2019-03-11T06:28:59.179Z,99583.20
2019-03-11T06:34:02.777Z,99578.41
2019-03-11T06:39:07.106Z,99574.76
2019-03-11T06:44:10.665Z,99588.41
2019-03-11T06:49:14.471Z,99591.88
2019-03-11T06:54:17.991Z,99588.55
2019-03-11T06:59:21.527Z,99600.02
2019-03-11T07:04:25.119Z,99600.48
2019-03-11T07:09:28.815Z,99595.82
2019-03-11T07:14:32.432Z,99604.05
2019-03-11T07:19:36.001Z,99601.13
2019-03-11T07:24:39.568Z,99589.78
2019-03-11T07:29:43.105Z,99581.01
2019-03-11T07:34:46.704Z,99574.70
2019-03-11T07:39:50.225Z,99567.34
2019-03-11T07:44:53.784Z,99551.00
2019-03-11T07:49:57.349Z,99564.28
2019-03-11T07:55:00.914Z,99566.63
2019-03-11T08:00:16.498Z,99565.53
2019-03-11T08:05:20.123Z,99565.34
2019-03-11T08:10:26.704Z,99570.12
2019-03-11T08:15:30.266Z,99570.61
2019-03-11T08:20:33.832Z,99575.73
2019-03-11T08:25:38.314Z,99585.07
2019-03-11T08:30:41.852Z,99578.61
2019-03-11T08:35:45.392Z,99585.73
2019-03-11T08:40:48.957Z,99580.94
2019-03-11T08:45:52.604Z,99599.84
2019-03-11T08:50:56.172Z,99603.15
2019-03-11T08:55:59.731Z,99586.32
2019-03-11T09:01:03.255Z,99598.12
2019-03-11T09:06:06.870Z,99601.44
2019-03-11T09:11:10.426Z,99597.73
2019-03-11T09:16:14.019Z,99584.95
2019-03-11T09:21:17.572Z,99587.06
2019-03-11T09:26:21.118Z,99580.75
2019-03-11T09:31:24.713Z,99567.00
2019-03-11T09:36:28.236Z,99577.00
2019-03-11T09:41:31.837Z,99576.42
2019-03-11T09:46:35.429Z,99561.89
2019-03-11T09:51:38.991Z,99561.19
2019-03-11T09:56:43.594Z,99566.23
2019-03-11T10:01:47.459Z,99563.28
2019-03-11T10:06:51.026Z,99568.90
2019-03-11T10:11:54.566Z,99557.22
2019-03-11T10:16:58.137Z,99555.14
2019-03-11T10:22:01.657Z,99539.53
2019-03-11T10:27:05.226Z,99557.61
2019-03-11T10:32:08.798Z,99554.39
2019-03-11T10:37:12.370Z,99546.95
2019-03-11T10:42:15.939Z,99559.49
2019-03-11T10:47:19.535Z,99553.13
2019-03-11T10:52:23.059Z,99547.35
2019-03-11T10:57:26.631Z,99549.30
2019-03-11T11:02:30.160Z,99544.97
2019-03-11T11:07:33.793Z,99539.50
2019-03-11T11:12:37.389Z,99542.42
2019-03-11T11:17:40.914Z,99540.69
2019-03-11T11:22:44.478Z,99537.39
2019-03-11T11:27:48.024Z,99533.67
2019-03-11T11:32:51.587Z,99518.16
2019-03-11T11:37:55.124Z,99521.77
2019-03-11T11:42:58.689Z,99503.25
2019-03-11T11:48:02.264Z,99499.52
2019-03-11T11:53:05.786Z,99488.41
2019-03-11T11:58:09.321Z,99494.12
2019-03-11T12:03:12.863Z,99490.41
2019-03-11T12:08:16.402Z,99503.91
2019-03-11T12:13:20.013Z,99502.70
2019-03-11T12:18:23.535Z,99491.08
2019-03-11T12:23:27.132Z,99517.47
2019-03-11T12:28:30.672Z,99546.73
2019-03-11T12:33:34.231Z,99572.88
2019-03-11T12:38:37.779Z,99575.17
2019-03-11T12:43:41.387Z,99591.06
2019-03-11T12:48:44.911Z,99591.16
2019-03-11T12:53:48.445Z,99591.30
2019-03-11T12:58:52.021Z,99583.34
2019-03-11T13:03:55.589Z,99601.11
2019-03-11T13:08:59.220Z,99601.17
2019-03-11T13:14:02.771Z,99603.74
2019-03-11T13:19:13.160Z,99599.28
2019-03-11T13:24:11.624Z,99591.44
2019-03-11T13:29:15.220Z,99597.27
2019-03-11T13:34:18.764Z,99589.20
2019-03-11T13:39:22.325Z,99582.30
2019-03-11T13:44:25.878Z,99579.07
2019-03-11T13:49:29.409Z,99572.18
2019-03-11T13:54:32.963Z,99591.09
2019-03-11T13:59:36.535Z,99586.45
2019-03-11T14:04:41.663Z,99583.94
2019-03-11T14:09:45.432Z,99599.66
2019-03-11T14:14:49.062Z,99601.27
2019-03-11T14:19:52.613Z,99605.36
2019-03-11T14:24:56.171Z,99617.77
2019-03-11T14:29:59.715Z,99614.34
2019-03-11T14:35:03.257Z,99615.40
2019-03-11T14:40:12.758Z,99620.37
2019-03-11T14:45:23.112Z,99634.94
2019-03-11T14:50:26.825Z,99630.05
2019-03-11T14:55:30.451Z,99622.23
2019-03-11T15:00:33.982Z,99627.08
2019-03-11T15:05:37.539Z,99632.64
2019-03-11T15:10:41.091Z,99630.63
2019-03-11T15:15:44.658Z,99639.00
2019-03-11T15:20:48.254Z,99649.86
2019-03-11T15:25:51.804Z,99658.45
2019-03-11T15:30:55.385Z,99668.66
2019-03-11T15:35:59.271Z,99677.34
2019-03-11T15:41:02.811Z,99691.18
2019-03-11T15:46:06.390Z,99685.05
2019-03-11T15:51:09.987Z,99678.66
2019-03-11T15:56:13.538Z,99671.98
2019-03-11T16:01:17.179Z,99667.83
2019-03-11T16:06:20.713Z,99682.70
2019-03-11T16:11:24.270Z,99683.13
2019-03-11T16:16:27.811Z,99691.20
2019-03-11T16:21:31.372Z,99707.33
2019-03-11T16:26:34.892Z,99701.05
2019-03-11T16:31:38.436Z,99715.83
2019-03-11T16:36:41.996Z,99716.38
2019-03-11T16:41:45.527Z,99725.72
2019-03-11T16:46:49.094Z,99736.92
2019-03-11T16:51:52.765Z,99743.13
2019-03-11T16:56:56.404Z,99751.72
2019-03-11T17:01:59.926Z,99761.36
2019-03-11T17:07:03.498Z,99761.36
2019-03-11T17:12:07.089Z,99774.84
2019-03-11T17:17:10.631Z,99769.23
2019-03-11T17:22:14.450Z,99773.31
2019-03-11T17:27:18.027Z,99775.86
2019-03-11T17:32:21.590Z,99786.11
2019-03-11T17:37:25.154Z,99806.36
2019-03-11T17:42:28.718Z,99801.58
2019-03-11T17:47:32.306Z,99809.28
2019-03-11T17:52:35.855Z,99817.33
2019-03-11T17:57:39.388Z,99817.37
2019-03-11T18:02:42.966Z,99834.55
2019-03-11T18:07:46.509Z,99837.73
2019-03-11T18:12:50.138Z,99844.64
2019-03-11T18:17:53.820Z,99842.69
2019-03-11T18:22:57.365Z,99828.83
2019-03-11T18:28:00.941Z,99837.91
2019-03-11T18:33:04.852Z,99833.27
2019-03-11T18:38:08.399Z,99834.13
2019-03-11T18:43:20.231Z,99847.92
2019-03-11T18:48:17.334Z,99863.28
2019-03-11T18:53:20.943Z,99866.58
2019-03-11T18:58:24.509Z,99872.47
2019-03-11T19:03:28.059Z,99879.45
2019-03-11T19:08:31.668Z,99871.06
2019-03-11T19:13:35.281Z,99872.96
2019-03-11T19:18:38.842Z,99878.47
2019-03-11T19:23:42.544Z,99874.53
2019-03-11T19:28:46.154Z,99889.17
2019-03-11T19:33:49.745Z,99889.17
2019-03-11T19:38:53.364Z,99894.81
2019-03-11T19:43:57.017Z,99896.10
2019-03-11T19:49:00.657Z,99903.41
2019-03-11T19:54:05.142Z,99899.58
2019-03-11T19:59:08.734Z,99900.41
2019-03-11T20:04:12.306Z,99901.03
2019-03-11T20:09:15.922Z,99908.39
2019-03-11T20:14:19.519Z,99905.61
2019-03-11T20:19:23.107Z,99910.77
2019-03-11T20:24:26.648Z,99912.58
2019-03-11T20:29:30.175Z,99918.43
2019-03-11T20:34:33.806Z,99926.45
2019-03-11T20:39:37.347Z,99928.06
2019-03-11T20:44:40.882Z,99935.23
2019-03-11T20:49:44.444Z,99942.17
2019-03-11T20:54:48.059Z,99948.73
2019-03-11T20:59:51.634Z,99966.19
2019-03-11T21:04:55.176Z,99969.50
2019-03-11T21:09:58.752Z,99974.46
2019-03-11T21:15:02.396Z,99987.69
2019-03-11T21:20:08.952Z,99983.11
2019-03-11T21:25:15.041Z,99978.81
2019-03-11T21:30:20.295Z,99983.88
2019-03-11T21:35:24.080Z,99986.99
2019-03-11T21:40:27.785Z,99986.17
2019-03-11T21:45:34.545Z,99987.39
2019-03-11T21:50:36.597Z,99987.56
2019-03-11T21:55:40.171Z,100001.48
2019-03-11T22:00:43.726Z,100014.09
2019-03-11T22:05:47.289Z,100020.59
2019-03-11T22:10:50.857Z,100037.15
2019-03-11T22:15:54.431Z,100041.95
2019-03-11T22:20:57.994Z,100047.14
2019-03-11T22:26:01.680Z,100058.66
2019-03-11T22:31:05.246Z,100070.55
2019-03-11T22:36:08.788Z,100078.86
2019-03-11T22:41:12.363Z,100100.29
2019-03-11T22:46:15.883Z,100103.70
2019-03-11T22:51:19.422Z,100105.55
2019-03-11T22:56:22.960Z,100096.02
2019-03-11T23:01:26.607Z,100122.58
2019-03-11T23:06:30.214Z,100120.05
2019-03-11T23:11:33.727Z,100131.03
2019-03-11T23:16:37.293Z,100135.31
2019-03-11T23:21:40.833Z,100135.93
2019-03-11T23:26:44.403Z,100145.16
2019-03-11T23:31:47.986Z,100147.67
2019-03-11T23:36:51.578Z,100149.06
2019-03-11T23:41:55.108Z,100152.28
2019-03-11T23:46:58.700Z,100157.31
2019-03-11T23:52:02.221Z,100157.51
2019-03-11T23:57:05.796Z,100165.05
